createdAt,value
2023-03-29T00:03:54.364Z,11.40
2023-03-29T00:08:57.694Z,11.30
2023-03-29T00:14:03.378Z,12.40
2023-03-29T00:19:40.559Z,19.00
2023-03-29T00:24:43.613Z,13.90
2023-03-29T00:29:54.483Z,16.60
2023-03-29T00:34:58.685Z,15.20
2023-03-29T00:40:17.661Z,13.50
2023-03-29T00:45:27.010Z,17.50
2023-03-29T00:50:39.479Z,19.90
2023-03-29T00:56:27.842Z,14.80
2023-03-29T01:01:42.731Z,13.40
2023-03-29T01:07:13.840Z,19.80
2023-03-29T01:12:24.673Z,15.50
2023-03-29T01:17:31.805Z,10.50
2023-03-29T01:23:17.569Z,12.50
2023-03-29T01:28:33.645Z,11.70
2023-03-29T01:33:49.565Z,12.60
2023-03-29T01:39:03.601Z,10.50
2023-03-29T01:44:37.475Z,12.10
2023-03-29T01:50:08.562Z,11.40
2023-03-29T01:55:38.631Z,8.20
2023-03-29T02:00:43.900Z,6.20
2023-03-29T02:05:47.373Z,8.30
2023-03-29T02:10:56.642Z,8.90
2023-03-29T02:16:03.302Z,9.90
2023-03-29T02:21:25.388Z,11.70
2023-03-29T02:26:29.474Z,12.30
2023-03-29T02:31:53.156Z,11.00
2023-03-29T02:37:11.824Z,10.90
2023-03-29T02:42:21.372Z,7.70
2023-03-29T02:47:47.447Z,8.50
2023-03-29T02:53:06.146Z,9.90
2023-03-29T02:58:13.002Z,9.10
2023-03-29T03:03:19.051Z,10.90
2023-03-29T03:08:22.355Z,8.90
2023-03-29T03:13:25.760Z,7.20
2023-03-29T03:18:31.342Z,7.20
2023-03-29T03:23:34.707Z,9.80
2023-03-29T03:28:39.184Z,12.10
2023-03-29T03:33:42.215Z,9.00
2023-03-29T03:38:46.418Z,11.70
2023-03-29T03:43:49.715Z,9.30
2023-03-29T03:48:52.788Z,7.50
2023-03-29T03:53:55.936Z,7.60
2023-03-29T03:58:59.046Z,6.70
2023-03-29T04:04:05.086Z,8.10
2023-03-29T04:09:11.637Z,5.90
2023-03-29T04:14:15.359Z,7.90
2023-03-29T04:19:18.779Z,6.60
2023-03-29T04:24:24.711Z,9.40
2023-03-29T04:29:28.709Z,6.20
2023-03-29T04:34:32.220Z,8.60
2023-03-29T04:39:35.431Z,7.20
2023-03-29T04:44:47.811Z,12.80
2023-03-29T04:49:50.925Z,9.90
2023-03-29T04:55:06.311Z,13.00
2023-03-29T05:00:14.644Z,12.60
2023-03-29T05:05:17.810Z,20.30
2023-03-29T05:10:21.207Z,20.60
2023-03-29T05:15:24.390Z,21.70
2023-03-29T05:20:28.644Z,20.10
2023-03-29T05:25:36.999Z,30.40
2023-03-29T05:30:47.994Z,22.10
2023-03-29T05:36:13.142Z,26.30
2023-03-29T05:41:18.199Z,18.40
2023-03-29T05:46:29.314Z,13.50
2023-03-29T05:51:45.700Z,18.40
2023-03-29T05:56:48.723Z,16.30
2023-03-29T06:01:55.227Z,13.40
2023-03-29T06:07:04.194Z,16.50
2023-03-29T06:12:10.043Z,20.90
2023-03-29T06:17:13.848Z,40.90
2023-03-29T06:22:17.278Z,25.70
2023-03-29T06:27:20.746Z,29.20
2023-03-29T06:32:23.950Z,27.00
2023-03-29T06:37:27.817Z,36.70
2023-03-29T06:42:33.890Z,66.50
2023-03-29T06:47:37.196Z,36.90
2023-03-29T06:52:40.410Z,43.40
2023-03-29T06:57:51.701Z,45.90
2023-03-29T07:03:00.881Z,41.80
2023-03-29T07:08:06.898Z,44.10
2023-03-29T07:13:15.677Z,49.30
2023-03-29T07:18:32.037Z,49.70
2023-03-29T07:23:38.900Z,49.10
2023-03-29T07:28:43.229Z,61.50
2023-03-29T07:33:47.779Z,40.00
2023-03-29T07:38:51.017Z,44.10
2023-03-29T07:43:57.178Z,46.20
2023-03-29T07:49:12.533Z,35.70
2023-03-29T07:54:15.912Z,34.10
2023-03-29T07:59:19.082Z,31.80
2023-03-29T08:04:26.776Z,34.20
2023-03-29T08:09:30.499Z,37.30
2023-03-29T08:14:34.266Z,29.20
2023-03-29T08:19:37.451Z,33.90
2023-03-29T08:24:40.340Z,40.80
2023-03-29T08:29:43.752Z,29.10
2023-03-29T08:34:47.099Z,27.20
2023-03-29T08:39:52.544Z,26.00
2023-03-29T08:45:01.591Z,24.90
2023-03-29T08:50:06.890Z,32.50
2023-03-29T08:55:42.426Z,34.90
2023-03-29T09:01:17.095Z,38.60
2023-03-29T09:06:35.739Z,30.30
2023-03-29T09:12:35.767Z,28.30
2023-03-29T09:18:34.977Z,29.70
2023-03-29T09:24:05.573Z,23.50
2023-03-29T09:30:10.699Z,25.80
2023-03-29T09:35:33.847Z,25.20
2023-03-29T09:40:46.744Z,26.40
2023-03-29T09:46:21.841Z,32.60
2023-03-29T09:51:33.013Z,34.40
2023-03-29T09:56:36.115Z,35.90
2023-03-29T10:01:51.732Z,39.00
2023-03-29T10:07:05.105Z,40.20
2023-03-29T10:12:17.711Z,45.20
2023-03-29T10:17:38.142Z,57.00
2023-03-29T10:22:50.087Z,41.60
2023-03-29T10:28:05.313Z,44.20
2023-03-29T10:33:46.487Z,41.50
2023-03-29T10:39:13.277Z,42.50
2023-03-29T10:44:36.465Z,33.10
2023-03-29T10:49:50.893Z,36.10
2023-03-29T10:55:00.061Z,33.00
2023-03-29T11:00:46.382Z,32.40
2023-03-29T11:06:26.254Z,37.80
2023-03-29T11:11:47.363Z,27.50
2023-03-29T11:17:41.799Z,37.60
2023-03-29T11:23:35.165Z,35.80
2023-03-29T11:28:53.613Z,37.60
2023-03-29T11:34:42.426Z,37.10
2023-03-29T11:40:31.732Z,32.00
2023-03-29T11:46:14.441Z,31.50
2023-03-29T11:51:26.867Z,32.80
2023-03-29T11:56:47.820Z,25.80
2023-03-29T12:02:07.773Z,34.20
2023-03-29T12:07:26.859Z,43.60
2023-03-29T12:13:00.217Z,30.60
2023-03-29T12:18:28.136Z,27.10
2023-03-29T12:23:33.275Z,24.20
2023-03-29T12:29:05.699Z,30.10
2023-03-29T12:35:05.696Z,28.40
2023-03-29T12:40:19.175Z,27.90
2023-03-29T12:45:48.525Z,31.10
2023-03-29T12:51:01.052Z,37.70
2023-03-29T12:56:04.522Z,26.50
2023-03-29T13:01:32.184Z,28.90
2023-03-29T13:07:17.089Z,26.20
2023-03-29T13:12:51.458Z,26.10
2023-03-29T13:18:29.202Z,26.40
2023-03-29T13:24:03.363Z,36.00
2023-03-29T13:29:18.942Z,31.40
2023-03-29T13:34:54.450Z,35.00
2023-03-29T13:39:58.141Z,46.00
2023-03-29T13:45:30.307Z,41.20
2023-03-29T13:50:55.856Z,30.00
2023-03-29T13:56:02.083Z,29.70
2023-03-29T14:01:32.865Z,26.00
2023-03-29T14:06:40.750Z,21.70
2023-03-29T14:11:47.548Z,21.80
2023-03-29T14:16:51.247Z,33.90
2023-03-29T14:21:54.758Z,23.50
2023-03-29T14:27:00.250Z,28.70
2023-03-29T14:32:13.055Z,28.70
2023-03-29T14:37:26.316Z,22.10
2023-03-29T14:42:32.163Z,23.50
2023-03-29T14:47:36.751Z,22.50
2023-03-29T14:52:44.995Z,23.60
2023-03-29T14:58:10.087Z,26.60
2023-03-29T15:03:16.875Z,26.90
2023-03-29T15:08:34.356Z,19.80
2023-03-29T15:13:42.483Z,24.80
2023-03-29T15:18:49.710Z,29.20
2023-03-29T15:23:59.520Z,28.70
2023-03-29T15:29:23.398Z,30.30
2023-03-29T15:34:35.356Z,51.30
2023-03-29T15:39:44.557Z,82.00
2023-03-29T15:44:53.305Z,78.20
2023-03-29T15:50:22.736Z,95.30
2023-03-29T15:55:32.770Z,109.00
2023-03-29T16:00:43.618Z,115.30
2023-03-29T16:05:49.559Z,89.80
2023-03-29T16:10:52.753Z,80.40
2023-03-29T16:16:06.466Z,132.00
2023-03-29T16:21:18.398Z,141.00
2023-03-29T16:26:24.455Z,104.60
2023-03-29T16:31:30.810Z,409.30
2023-03-29T16:36:35.151Z,136.60
2023-03-29T16:41:38.828Z,123.60
2023-03-29T16:46:57.620Z,83.50
2023-03-29T16:52:01.212Z,92.20
2023-03-29T16:57:04.605Z,74.80
2023-03-29T17:02:10.939Z,133.30
2023-03-29T17:07:14.194Z,95.10
2023-03-29T17:12:20.618Z,118.80
2023-03-29T17:17:24.031Z,129.00
2023-03-29T17:22:31.885Z,109.40
2023-03-29T17:27:38.878Z,151.70
2023-03-29T17:32:45.926Z,125.60
2023-03-29T17:37:49.681Z,128.50
2023-03-29T17:42:55.531Z,139.80
2023-03-29T17:48:04.708Z,122.90
2023-03-29T17:53:10.772Z,110.50
2023-03-29T17:58:24.322Z,107.90
2023-03-29T18:03:48.652Z,153.00
2023-03-29T18:08:53.395Z,155.50
2023-03-29T18:14:07.743Z,120.30
2023-03-29T18:19:14.010Z,109.50
2023-03-29T18:24:17.430Z,114.60
2023-03-29T18:29:21.152Z,96.30
2023-03-29T18:34:34.553Z,106.40
2023-03-29T18:40:08.435Z,103.70
2023-03-29T18:45:12.560Z,183.70
2023-03-29T18:50:19.055Z,213.00
2023-03-29T18:55:25.033Z,94.80
2023-03-29T19:00:28.337Z,117.30
2023-03-29T19:05:32.861Z,134.60
2023-03-29T19:10:38.829Z,144.00
2023-03-29T19:15:47.664Z,99.60
2023-03-29T19:20:54.482Z,136.00
2023-03-29T19:26:04.194Z,132.90
2023-03-29T19:31:07.529Z,106.00
2023-03-29T19:36:11.024Z,76.70
2023-03-29T19:41:14.418Z,101.10
2023-03-29T19:46:17.548Z,125.10
2023-03-29T19:51:26.826Z,94.50
2023-03-29T19:56:30.131Z,109.30
2023-03-29T20:01:34.175Z,89.10
2023-03-29T20:06:37.373Z,88.60
2023-03-29T20:11:40.680Z,99.60
2023-03-29T20:16:44.983Z,76.70
2023-03-29T20:21:57.873Z,82.00
2023-03-29T20:27:01.680Z,69.50
2023-03-29T20:32:04.806Z,76.70
2023-03-29T20:37:07.996Z,80.20
2023-03-29T20:42:11.373Z,97.30
2023-03-29T20:47:16.928Z,115.10
2023-03-29T20:52:23.615Z,80.30
2023-03-29T20:57:28.623Z,146.50
2023-03-29T21:02:33.784Z,86.70
2023-03-29T21:07:37.624Z,119.20
2023-03-29T21:12:43.597Z,94.00
2023-03-29T21:17:47.912Z,86.10
2023-03-29T21:22:51.717Z,94.20
2023-03-29T21:27:58.097Z,68.10
2023-03-29T21:33:01.297Z,69.70
2023-03-29T21:38:04.700Z,77.80
2023-03-29T21:43:07.814Z,100.00
2023-03-29T21:48:13.399Z,91.20
2023-03-29T21:53:24.762Z,102.70
2023-03-29T21:58:28.104Z,130.30
2023-03-29T22:03:31.629Z,93.70
2023-03-29T22:08:35.097Z,107.10
2023-03-29T22:13:38.702Z,82.80
2023-03-29T22:18:47.008Z,108.10
2023-03-29T22:23:54.120Z,115.00
2023-03-29T22:29:03.945Z,122.70
2023-03-29T22:34:12.818Z,94.30
2023-03-29T22:39:18.219Z,62.20
2023-03-29T22:44:24.133Z,72.90
2023-03-29T22:49:34.974Z,60.30
2023-03-29T22:54:38.459Z,61.70
2023-03-29T22:59:52.247Z,62.60
2023-03-29T23:04:58.072Z,56.90
2023-03-29T23:10:09.889Z,48.50
2023-03-29T23:15:32.441Z,60.80
2023-03-29T23:20:38.693Z,64.50
2023-03-29T23:25:51.831Z,59.10
2023-03-29T23:31:22.640Z,61.90
2023-03-29T23:36:28.188Z,73.10
2023-03-29T23:41:56.824Z,64.70
2023-03-29T23:47:09.489Z,64.50
2023-03-29T23:52:13.335Z,67.00
2023-03-29T23:57:26.929Z,61.80
